Time;durP1;ratioP1;P1;durP2;ratioP2;P2;SDS_P1;SDS_P2;PMS_P1;PMS_P2;Temp;Humidity;BMP_temperature;BMP_pressure;BME280_temperature;BME280_humidity;BME280_pressure;Samples;Min_cycle;Max_cycle;Signal;HPM_P1;HPM_P2
2022/01/05 00:04:36;;;;;;;2.40;0.93;;;18.00;82.40;;;;;;10457033;28;20041;-79
2022/01/05 00:09:37;;;;;;;2.00;0.88;;;17.90;82.50;;;;;;10456546;28;20076;-79
2022/01/05 00:14:39;;;;;;;1.60;0.70;;;17.80;82.50;;;;;;10456576;28;20414;-80
2022/01/05 00:19:40;;;;;;;3.08;0.80;;;17.80;82.60;;;;;;10450658;28;20048;-79
2022/01/05 00:24:43;;;;;;;1.60;0.80;;;17.70;82.70;;;;;;10442067;28;20037;-79
2022/01/05 00:29:45;;;;;;;2.00;0.90;;;17.70;82.80;;;;;;10449024;28;20076;-79
2022/01/05 00:34:46;;;;;;;2.53;0.90;;;17.60;82.90;;;;;;10445171;28;20037;-79
2022/01/05 00:39:48;;;;;;;2.05;0.90;;;17.60;83.00;;;;;;10455279;28;20064;-79
2022/01/05 00:44:49;;;;;;;2.40;0.88;;;17.50;83.00;;;;;;10455799;28;20052;-79
2022/01/05 00:49:51;;;;;;;1.90;0.80;;;17.50;83.70;;;;;;10454251;28;20041;-76
2022/01/05 00:54:52;;;;;;;2.55;1.00;;;17.40;83.20;;;;;;10445245;28;20045;-79
2022/01/05 00:59:54;;;;;;;2.17;0.70;;;17.40;83.30;;;;;;10454170;28;20049;-79
2022/01/05 01:04:55;;;;;;;2.47;0.90;;;17.30;83.30;;;;;;10454195;28;20041;-79
2022/01/05 01:09:56;;;;;;;2.13;0.82;;;17.30;83.40;;;;;;10454219;28;20049;-78
2022/01/05 01:14:58;;;;;;;1.63;0.95;;;17.20;83.40;;;;;;10454094;28;20048;-80
2022/01/05 01:19:59;;;;;;;1.92;0.85;;;17.20;83.50;;;;;;10444132;28;20049;-79
2022/01/05 01:25:01;;;;;;;2.28;0.80;;;17.10;83.50;;;;;;10453645;28;20049;-79
2022/01/05 01:30:02;;;;;;;1.90;0.80;;;17.10;83.60;;;;;;10454714;28;20140;-80
2022/01/05 01:35:04;;;;;;;2.72;1.00;;;17.00;83.70;;;;;;10436582;28;20037;-80
2022/01/05 01:40:05;;;;;;;2.28;1.00;;;17.00;83.70;;;;;;10453724;28;20052;-78
2022/01/05 01:45:07;;;;;;;1.92;0.80;;;16.90;83.70;;;;;;10453434;28;20049;-79
2022/01/05 01:50:08;;;;;;;2.08;0.80;;;16.90;83.80;;;;;;10452898;28;20049;-79
2022/01/05 01:55:10;;;;;;;1.63;0.73;;;16.80;83.80;;;;;;10453545;28;20079;-79
2022/01/05 02:00:11;;;;;;;1.52;0.57;;;16.80;83.90;;;;;;10452745;28;20339;-80
2022/01/05 02:05:13;;;;;;;2.67;0.80;;;16.70;83.90;;;;;;10452893;28;20052;-79
2022/01/05 02:10:14;;;;;;;3.03;0.98;;;16.70;83.90;;;;;;10453109;28;20049;-80
2022/01/05 02:15:16;;;;;;;1.90;0.80;;;16.60;84.00;;;;;;10447459;28;20056;-80
2022/01/05 02:20:17;;;;;;;1.95;0.50;;;16.60;84.00;;;;;;10461013;28;20060;-79
2022/01/05 02:25:19;;;;;;;2.30;0.90;;;16.60;84.10;;;;;;10459529;28;20041;-78
2022/01/05 02:30:20;;;;;;;2.15;0.93;;;16.60;84.10;;;;;;10460804;28;20053;-79
2022/01/05 02:35:22;;;;;;;3.72;0.75;;;16.50;84.10;;;;;;10453545;28;20095;-79
2022/01/05 02:40:23;;;;;;;1.45;0.60;;;16.50;84.20;;;;;;10460006;28;20460;-80
2022/01/05 02:45:25;;;;;;;2.67;0.93;;;16.40;84.20;;;;;;10460467;28;20071;-79
2022/01/05 02:50:26;;;;;;;2.38;0.90;;;16.40;84.30;;;;;;10459424;28;20098;-79
2022/01/05 02:55:27;;;;;;;1.88;0.82;;;16.40;84.30;;;;;;10459645;28;20049;-79
2022/01/05 03:00:29;;;;;;;2.40;0.80;;;16.30;84.30;;;;;;10459134;28;20064;-78
2022/01/05 03:05:30;;;;;;;2.42;0.80;;;16.30;84.30;;;;;;10459463;28;20053;-79
2022/01/05 03:10:32;;;;;;;2.05;0.50;;;16.20;84.40;;;;;;10448163;28;20044;-79
2022/01/05 03:15:35;;;;;;;2.10;0.70;;;16.20;84.40;;;;;;10458998;28;20056;-79
2022/01/05 03:20:36;;;;;;;2.15;0.80;;;16.20;84.50;;;;;;10458424;28;20085;-79
2022/01/05 03:25:38;;;;;;;3.08;0.90;;;16.10;84.40;;;;;;10458289;28;20059;-79
2022/01/05 03:30:40;;;;;;;2.53;0.98;;;16.10;84.50;;;;;;10457841;28;20099;-79
2022/01/05 03:35:41;;;;;;;2.40;0.88;;;16.10;85.10;;;;;;10458250;28;20049;-79
2022/01/05 03:40:43;;;;;;;1.88;0.82;;;16.10;84.50;;;;;;10457996;28;20052;-80
2022/01/05 03:45:44;;;;;;;2.15;0.80;;;16.00;84.50;;;;;;10457874;28;20049;-79
2022/01/05 03:50:46;;;;;;;1.77;0.65;;;16.00;84.60;;;;;;10457143;28;20524;-80
2022/01/05 03:55:47;;;;;;;1.60;0.70;;;15.90;84.60;;;;;;10457429;28;20049;-78
2022/01/05 04:00:48;;;;;;;2.45;0.70;;;15.90;84.70;;;;;;10457377;28;20049;-79
2022/01/05 04:05:50;;;;;;;1.92;0.70;;;15.90;84.70;;;;;;10451162;28;20052;-79
2022/01/05 04:10:51;;;;;;;2.03;0.80;;;15.80;84.70;;;;;;10456914;28;20048;-80
2022/01/05 04:15:53;;;;;;;1.83;0.70;;;15.80;84.70;;;;;;10456341;28;20040;-79
2022/01/05 04:20:54;;;;;;;2.20;0.80;;;15.80;84.70;;;;;;10455691;28;20105;-78
2022/01/05 04:25:56;;;;;;;2.22;0.80;;;15.70;84.70;;;;;;10456863;28;20243;-79
2022/01/05 04:30:57;;;;;;;2.08;0.70;;;15.70;84.80;;;;;;10456236;28;20048;-79
2022/01/05 04:35:59;;;;;;;2.22;0.80;;;15.70;84.80;;;;;;10455584;28;20052;-78
2022/01/05 04:41:00;;;;;;;2.90;1.00;;;15.60;84.80;;;;;;10455063;28;20049;-79
2022/01/05 04:46:02;;;;;;;2.97;0.93;;;15.60;84.80;;;;;;10455659;28;20052;-79
2022/01/05 04:51:03;;;;;;;2.40;0.90;;;15.60;84.80;;;;;;10454515;28;20061;-78
2022/01/05 04:56:05;;;;;;;1.77;0.70;;;15.60;84.90;;;;;;10452472;28;20041;-78
2022/01/05 05:01:06;;;;;;;2.25;0.80;;;15.50;84.90;;;;;;10449551;28;20057;-78
2022/01/05 05:06:08;;;;;;;3.40;1.10;;;15.50;84.90;;;;;;10449509;28;20109;-78
2022/01/05 05:11:09;;;;;;;2.47;1.00;;;15.50;85.00;;;;;;10455135;28;20045;-78
2022/01/05 05:16:10;;;;;;;2.47;0.95;;;15.50;85.00;;;;;;10454643;28;20045;-78
2022/01/05 05:21:12;;;;;;;3.05;1.05;;;15.40;85.00;;;;;;10453787;28;20498;-79
2022/01/05 05:26:13;;;;;;;2.15;0.80;;;15.40;85.00;;;;;;10454647;28;20044;-77
2022/01/05 05:31:15;;;;;;;1.73;0.82;;;15.40;85.10;;;;;;10454565;28;20091;-78
2022/01/05 05:36:16;;;;;;;1.75;0.70;;;15.30;85.00;;;;;;10454520;28;20060;-79
2022/01/05 05:41:18;;;;;;;2.22;0.90;;;15.30;85.60;;;;;;10453111;28;20056;-79
2022/01/05 05:46:20;;;;;;;2.30;1.10;;;15.30;85.10;;;;;;10454364;28;20049;-78
2022/01/05 05:51:21;;;;;;;2.53;0.80;;;15.20;85.00;;;;;;10440638;28;20080;-79
2022/01/05 05:56:23;;;;;;;2.88;0.77;;;15.20;85.10;;;;;;10453265;28;20045;-78
2022/01/05 06:01:24;;;;;;;2.78;0.80;;;15.20;85.10;;;;;;10453403;28;20093;-79
2022/01/05 06:06:25;;;;;;;2.80;0.95;;;15.20;85.10;;;;;;10452782;28;20044;-79
2022/01/05 06:11:27;;;;;;;2.65;1.00;;;15.20;85.20;;;;;;10452989;28;20049;-79
2022/01/05 06:16:28;;;;;;;3.50;0.98;;;15.10;85.10;;;;;;10452887;28;20087;-79
2022/01/05 06:21:30;;;;;;;2.20;0.90;;;15.10;85.10;;;;;;10453092;28;20045;-79
2022/01/05 06:26:31;;;;;;;3.08;0.82;;;15.10;85.20;;;;;;10452604;28;20417;-79
2022/01/05 06:31:33;;;;;;;1.92;0.80;;;15.10;85.20;;;;;;10452455;28;20041;-80
2022/01/05 06:36:34;;;;;;;2.70;1.05;;;15.10;85.20;;;;;;10451488;28;20468;-78
2022/01/05 06:41:36;;;;;;;2.70;0.98;;;15.00;85.20;;;;;;10451830;28;20049;-79
2022/01/05 06:46:37;;;;;;;2.72;1.00;;;15.00;85.20;;;;;;10442074;28;20052;-78
2022/01/05 06:51:39;;;;;;;2.30;0.73;;;15.00;85.20;;;;;;10452378;28;20383;-79
2022/01/05 06:56:40;;;;;;;2.20;0.80;;;14.90;85.20;;;;;;10446425;28;20068;-77
2022/01/05 07:01:41;;;;;;;3.10;1.10;;;14.90;85.20;;;;;;10445512;28;20092;-76
2022/01/05 07:06:43;;;;;;;2.30;1.10;;;14.90;86.70;;;;;;10458425;28;20086;-79
2022/01/05 07:11:45;;;;;;;4.32;1.10;;;14.90;86.70;;;;;;10460346;28;20064;-78
2022/01/05 07:16:47;;;;;;;3.78;1.00;;;14.90;86.30;;;;;;10459270;28;20051;-80
2022/01/05 07:21:48;;;;;;;3.92;1.10;;;14.90;86.30;;;;;;10452057;28;20057;-80
2022/01/05 07:26:50;;;;;;;3.95;1.10;;;14.90;86.20;;;;;;10459755;28;20048;-79
2022/01/05 07:31:51;;;;;;;2.70;0.90;;;14.90;85.70;;;;;;10459198;28;20056;-79
2022/01/05 07:36:52;;;;;;;2.42;0.80;;;14.90;85.70;;;;;;10459449;28;20053;-81
2022/01/05 07:41:55;;;;;;;2.65;1.10;;;14.90;85.60;;;;;;10448835;28;20492;-80
2022/01/05 07:46:56;;;;;;;2.67;1.00;;;14.90;85.60;;;;;;10458769;28;20421;-80
2022/01/05 07:51:58;;;;;;;2.47;0.90;;;14.90;85.30;;;;;;10457120;28;20045;-80
2022/01/05 07:56:59;;;;;;;2.65;1.02;;;14.90;85.20;;;;;;10458739;28;20474;-79
2022/01/05 08:02:01;;;;;;;2.25;0.80;;;14.90;85.20;;;;;;10458418;28;20045;-81
2022/01/05 08:07:02;;;;;;;2.28;0.90;;;14.90;85.20;;;;;;10458147;28;20509;-79
2022/01/05 08:12:03;;;;;;;1.95;0.90;;;14.90;84.90;;;;;;10456842;28;20406;-80
2022/01/05 08:17:05;;;;;;;2.35;1.00;;;14.90;84.90;;;;;;10457271;28;20049;-79
2022/01/05 08:22:06;;;;;;;3.38;1.00;;;14.90;84.80;;;;;;10457857;28;20057;-79
2022/01/05 08:27:08;;;;;;;2.75;1.05;;;14.90;84.70;;;;;;10456565;28;20103;-79
2022/01/05 08:32:09;;;;;;;2.92;1.20;;;14.90;84.60;;;;;;10448388;28;20053;-79
2022/01/05 08:37:11;;;;;;;3.42;1.02;;;14.90;84.50;;;;;;10455819;28;20041;-79
2022/01/05 08:42:12;;;;;;;2.10;1.10;;;14.90;84.40;;;;;;10455885;28;20053;-80
2022/01/05 08:47:14;;;;;;;3.28;1.10;;;14.90;84.40;;;;;;10451896;28;20063;-80
2022/01/05 08:52:15;;;;;;;3.30;0.90;;;14.90;84.30;;;;;;10456225;28;20045;-78
2022/01/05 08:57:17;;;;;;;2.28;1.00;;;14.90;84.20;;;;;;10455868;28;20044;-81
2022/01/05 09:02:18;;;;;;;2.58;0.70;;;14.90;84.20;;;;;;10455955;28;20057;-80
2022/01/05 09:07:20;;;;;;;1.88;0.65;;;14.90;84.10;;;;;;10455786;28;20061;-80
2022/01/05 09:12:21;;;;;;;2.20;0.70;;;14.90;84.20;;;;;;10455323;28;20111;-78
2022/01/05 09:17:24;;;;;;;3.45;1.00;;;14.90;84.20;;;;;;10454951;28;20053;-80
2022/01/05 09:22:26;;;;;;;2.42;0.90;;;14.90;84.20;;;;;;10454836;28;20075;-80
2022/01/05 09:27:27;;;;;;;2.30;0.80;;;14.90;84.10;;;;;;10448063;28;20486;-79
2022/01/05 09:32:29;;;;;;;2.53;0.98;;;14.90;84.00;;;;;;10454622;28;20478;-79
2022/01/05 09:37:35;;;;;;;1.98;0.77;;;14.90;84.00;;;;;;10454726;28;20537;-81
2022/01/05 09:42:36;;;;;;;2.78;0.90;;;14.90;83.90;;;;;;10454436;28;20052;-79
2022/01/05 09:47:37;;;;;;;1.88;0.63;;;14.90;83.90;;;;;;10454138;28;20033;-79
2022/01/05 09:52:39;;;;;;;1.80;0.80;;;15.00;83.90;;;;;;10454432;28;20052;-79
2022/01/05 09:57:40;;;;;;;1.80;0.70;;;15.00;83.70;;;;;;10454574;28;20049;-79
2022/01/05 10:02:42;;;;;;;2.88;0.88;;;15.10;83.50;;;;;;10454934;28;20056;-79
2022/01/05 10:07:43;;;;;;;1.92;0.70;;;15.10;83.50;;;;;;10454266;28;20053;-79
2022/01/05 10:12:45;;;;;;;2.55;0.70;;;15.10;83.60;;;;;;10454500;28;20056;-79
2022/01/05 10:17:46;;;;;;;2.72;0.90;;;15.10;83.40;;;;;;10454651;28;20041;-80
2022/01/05 10:22:49;;;;;;;2.70;1.25;;;15.30;83.30;;;;;;10443601;28;20110;-80
2022/01/05 10:27:50;;;;;;;2.13;0.70;;;15.30;83.20;;;;;;10441635;28;20045;-79
2022/01/05 10:32:52;;;;;;;2.30;0.73;;;15.30;83.70;;;;;;10453899;28;20095;-80
2022/01/05 10:37:53;;;;;;;2.15;0.70;;;15.30;82.90;;;;;;10422126;28;20041;-78
2022/01/05 10:42:55;;;;;;;1.38;0.70;;;15.40;82.90;;;;;;10459421;28;20049;-80
2022/01/05 10:47:56;;;;;;;2.35;0.93;;;15.40;82.80;;;;;;10461198;28;20052;-80
2022/01/05 10:52:58;;;;;;;3.65;0.98;;;15.50;82.80;;;;;;10460938;28;20048;-81
2022/01/05 10:57:59;;;;;;;3.47;1.10;;;15.40;82.70;;;;;;10460502;28;20052;-80
2022/01/05 11:03:01;;;;;;;3.78;1.30;;;15.40;82.50;;;;;;10461678;28;20049;-81
2022/01/05 11:08:02;;;;;;;4.38;1.08;;;15.50;82.60;;;;;;10460637;28;20053;-79
2022/01/05 11:13:04;;;;;;;3.03;1.15;;;15.50;82.60;;;;;;10461015;28;20049;-80
2022/01/05 11:18:05;;;;;;;3.67;1.30;;;15.40;82.70;;;;;;10451733;28;20049;-79
2022/01/05 11:23:07;;;;;;;2.92;1.23;;;15.30;82.80;;;;;;10458548;28;20060;-80
2022/01/05 11:28:08;;;;;;;3.40;1.08;;;15.30;82.80;;;;;;10443243;28;20049;-74
2022/01/05 11:33:09;;;;;;;3.88;1.30;;;15.30;83.40;;;;;;10427266;28;20053;-81
2022/01/05 11:38:11;;;;;;;4.07;1.20;;;15.40;83.20;;;;;;10456023;28;20049;-78
2022/01/05 11:43:12;;;;;;;4.20;1.50;;;15.70;82.90;;;;;;10418689;28;20053;-81
2022/01/05 11:48:14;;;;;;;4.65;1.30;;;16.20;82.30;;;;;;10433423;28;20457;-82
2022/01/05 11:53:15;;;;;;;3.92;1.33;;;16.80;81.60;;;;;;10452552;28;20106;-81
2022/01/05 11:58:17;;;;;;;3.08;1.05;;;17.40;80.80;;;;;;10445511;28;20050;-81
2022/01/05 12:03:18;;;;;;;3.30;1.15;;;17.90;80.10;;;;;;10439672;28;20118;-83
2022/01/05 12:08:20;;;;;;;2.92;1.00;;;18.30;79.40;;;;;;10410311;28;20057;-82
2022/01/05 12:13:21;;;;;;;2.72;0.88;;;18.70;78.80;;;;;;10415871;28;20048;-82
2022/01/05 12:18:23;;;;;;;3.22;1.05;;;19.10;78.40;;;;;;10418120;28;20045;-82
2022/01/05 12:23:25;;;;;;;3.25;1.02;;;19.40;77.90;;;;;;10449993;28;20057;-83
2022/01/05 12:28:26;;;;;;;3.38;1.38;;;19.70;77.50;;;;;;10452905;28;20122;-83
2022/01/05 12:33:28;;;;;;;5.72;1.50;;;20.00;77.20;;;;;;10445592;28;20049;-82
2022/01/05 12:38:29;;;;;;;3.47;1.15;;;20.20;77.00;;;;;;10441704;28;20045;-82
2022/01/05 12:43:34;;;;;;;5.07;1.50;;;20.00;76.90;;;;;;10428865;28;20048;-84
2022/01/05 12:48:36;;;;;;;3.60;1.40;;;19.70;77.20;;;;;;10454288;28;20595;-83
2022/01/05 12:53:38;;;;;;;4.05;1.20;;;19.50;77.40;;;;;;10454726;28;20045;-83
2022/01/05 12:58:39;;;;;;;4.63;1.50;;;19.30;77.50;;;;;;10415018;28;20061;-83
2022/01/05 13:03:41;;;;;;;3.67;1.13;;;19.20;77.50;;;;;;10438479;28;20045;-81
2022/01/05 13:08:42;;;;;;;4.15;1.40;;;19.20;77.70;;;;;;10436949;28;20056;-84
2022/01/05 13:13:44;;;;;;;3.25;1.15;;;19.10;77.60;;;;;;10430168;28;20050;-83
2022/01/05 13:18:45;;;;;;;4.10;1.30;;;19.20;77.60;;;;;;10412152;28;20453;-82
2022/01/05 13:23:47;;;;;;;3.63;1.20;;;19.20;77.60;;;;;;10442290;28;20045;-83
2022/01/05 13:28:51;;;;;;;3.92;1.40;;;19.20;77.40;;;;;;10444995;28;20046;-81
2022/01/05 13:33:52;;;;;;;5.68;1.67;;;19.10;77.40;;;;;;10420868;28;20555;-83
2022/01/05 13:38:54;;;;;;;3.17;1.27;;;19.00;77.40;;;;;;10452183;28;20410;-83
2022/01/05 13:43:55;;;;;;;4.22;1.40;;;19.10;77.70;;;;;;10452658;28;20562;-82
2022/01/05 13:48:57;;;;;;;4.15;1.40;;;19.00;77.50;;;;;;10439715;28;20048;-83
2022/01/05 13:53:58;;;;;;;4.38;1.40;;;19.00;77.40;;;;;;10451876;28;20071;-83
2022/01/05 13:59:00;;;;;;;4.13;1.42;;;19.00;77.50;;;;;;10452357;28;20076;-81
2022/01/05 14:04:01;;;;;;;3.67;1.20;;;19.00;77.50;;;;;;10416915;28;20418;-82
2022/01/05 14:09:03;;;;;;;3.75;1.20;;;19.00;77.50;;;;;;10435184;28;20076;-82
2022/01/05 14:14:04;;;;;;;2.95;0.98;;;19.00;77.50;;;;;;10460776;28;20045;-84
2022/01/05 14:19:06;;;;;;;3.80;1.38;;;19.00;77.50;;;;;;10455415;28;20045;-82
2022/01/05 14:24:09;;;;;;;4.00;1.30;;;18.90;77.40;;;;;;10444941;28;20049;-83
2022/01/05 14:29:10;;;;;;;3.92;1.33;;;18.90;77.40;;;;;;10460102;28;20052;-83
2022/01/05 14:34:12;;;;;;;3.50;1.33;;;18.90;77.40;;;;;;10459706;28;20049;-83
2022/01/05 14:39:13;;;;;;;3.33;1.30;;;18.90;77.40;;;;;;10445583;28;20052;-82
2022/01/05 14:44:15;;;;;;;4.18;1.23;;;18.80;77.40;;;;;;10459565;28;20053;-82
2022/01/05 14:49:16;;;;;;;4.13;1.10;;;18.80;77.50;;;;;;10459401;28;20413;-83
2022/01/05 14:54:18;;;;;;;2.72;1.30;;;18.80;77.40;;;;;;10444936;28;20464;-84
2022/01/05 14:59:20;;;;;;;2.83;1.17;;;18.80;77.50;;;;;;10440822;28;20037;-82
2022/01/05 15:04:21;;;;;;;3.33;1.30;;;18.80;77.40;;;;;;10426571;28;20450;-83
2022/01/05 15:09:24;;;;;;;2.78;1.27;;;18.80;77.40;;;;;;10438884;28;20049;-83
2022/01/05 15:14:27;;;;;;;6.38;1.73;;;18.80;77.50;;;;;;10421067;28;20051;-83
2022/01/05 15:19:28;;;;;;;2.53;1.25;;;18.80;77.40;;;;;;10434918;28;20092;-82
2022/01/05 15:24:30;;;;;;;3.95;1.50;;;18.80;77.50;;;;;;10455942;28;20502;-83
2022/01/05 15:29:33;;;;;;;4.00;1.27;;;18.80;77.50;;;;;;10456443;28;20490;-82
2022/01/05 15:34:34;;;;;;;2.97;1.00;;;18.80;77.50;;;;;;10456269;28;20041;-82
2022/01/05 15:39:36;;;;;;;3.67;1.48;;;18.80;77.50;;;;;;10456930;28;20533;-85
2022/01/05 15:44:37;;;;;;;3.40;1.15;;;18.80;77.50;;;;;;10451769;28;20076;-83
2022/01/05 15:49:40;;;;;;;3.67;1.30;;;18.80;77.40;;;;;;10416580;28;20049;-83
2022/01/05 15:54:47;;;;;;;4.68;1.30;;;18.80;77.50;;;;;;10430842;28;20053;-83
2022/01/05 16:05:08;;;;;;;5.03;1.60;;;18.80;77.50;;;;;;10454431;28;20041;-83
2022/01/05 16:10:09;;;;;;;3.45;1.10;;;18.80;77.50;;;;;;10457381;28;20053;-83
2022/01/05 16:15:11;;;;;;;4.32;1.33;;;18.80;77.50;;;;;;10431092;28;20049;-81
2022/01/05 16:20:12;;;;;;;3.85;1.50;;;18.80;77.50;;;;;;10450466;28;20049;-83
2022/01/05 16:25:14;;;;;;;4.22;1.35;;;18.80;77.40;;;;;;10455052;28;20068;-83
2022/01/05 16:30:15;;;;;;;7.47;1.52;;;18.80;77.40;;;;;;10447096;28;20049;-82
2022/01/05 16:35:17;;;;;;;4.93;1.40;;;18.80;77.40;;;;;;10445796;28;20521;-81
2022/01/05 16:40:18;;;;;;;3.60;1.40;;;18.80;77.50;;;;;;10444717;28;20410;-80
2022/01/05 16:45:20;;;;;;;4.35;1.40;;;18.80;77.50;;;;;;10437873;28;20052;-84
2022/01/05 16:50:21;;;;;;;3.60;1.40;;;18.80;77.50;;;;;;10426372;28;20561;-82
2022/01/05 16:55:23;;;;;;;4.75;1.70;;;19.00;77.20;;;;;;10448513;28;20106;-82
2022/01/05 17:00:25;;;;;;;3.22;1.42;;;19.40;76.60;;;;;;10448820;28;20047;-82
2022/01/05 17:05:27;;;;;;;4.05;1.38;;;19.90;76.20;;;;;;10424058;28;20608;-81
2022/01/05 17:10:29;;;;;;;4.13;1.40;;;20.40;75.70;;;;;;10430826;28;20395;-83
2022/01/05 17:15:31;;;;;;;4.28;1.40;;;20.60;75.20;;;;;;10448603;28;20498;-82
2022/01/05 17:20:32;;;;;;;3.88;1.58;;;20.80;74.90;;;;;;10446985;28;20044;-82
2022/01/05 17:25:34;;;;;;;3.03;1.30;;;20.90;74.80;;;;;;10446047;28;20091;-81
2022/01/05 17:30:36;;;;;;;4.35;1.50;;;20.90;74.70;;;;;;10409231;28;20050;-79
2022/01/05 17:35:38;;;;;;;3.30;1.45;;;20.90;74.70;;;;;;10429655;28;20064;-83
2022/01/05 17:40:39;;;;;;;3.63;1.42;;;21.00;74.60;;;;;;10417618;28;20059;-81
2022/01/05 17:45:41;;;;;;;5.25;1.50;;;21.00;74.70;;;;;;10416666;28;20044;-82
2022/01/05 17:50:42;;;;;;;5.00;1.40;;;21.00;74.70;;;;;;10416646;28;20520;-80
2022/01/05 17:55:44;;;;;;;4.30;1.52;;;21.00;74.70;;;;;;10428598;28;20049;-82
2022/01/05 18:00:45;;;;;;;5.85;1.83;;;21.00;74.70;;;;;;10430415;28;20500;-84
2022/01/05 18:05:47;;;;;;;6.57;1.60;;;21.00;74.70;;;;;;10447247;28;20060;-85
2022/01/05 18:10:48;;;;;;;4.47;1.58;;;21.00;75.20;;;;;;10448380;28;20045;-83
2022/01/05 18:15:50;;;;;;;4.15;1.42;;;21.00;74.60;;;;;;10446896;28;20403;-83
2022/01/05 18:20:51;;;;;;;4.63;1.70;;;21.00;74.50;;;;;;10416070;28;20068;-85
2022/01/05 18:25:52;;;;;;;3.88;1.58;;;21.00;74.50;;;;;;10446309;28;20060;-83
2022/01/05 18:30:54;;;;;;;3.08;1.38;;;20.90;74.40;;;;;;10444994;28;20041;-82
2022/01/05 18:35:55;;;;;;;3.92;1.50;;;21.00;74.60;;;;;;10415741;28;20049;-82
2022/01/05 18:40:57;;;;;;;4.30;1.17;;;20.90;74.40;;;;;;10418997;28;20045;-82
2022/01/05 18:45:59;;;;;;;3.22;1.33;;;21.10;74.30;;;;;;10446695;28;20061;-83
2022/01/05 18:51:00;;;;;;;3.53;1.55;;;21.20;74.00;;;;;;10444811;28;20045;-84
2022/01/05 18:56:02;;;;;;;3.42;1.27;;;21.30;73.90;;;;;;10445071;28;20048;-83
2022/01/05 19:01:03;;;;;;;3.88;1.30;;;21.40;73.80;;;;;;10457263;28;20052;-83
2022/01/05 19:06:05;;;;;;;2.35;1.00;;;21.40;73.80;;;;;;10425575;28;20052;-82
2022/01/05 19:11:06;;;;;;;2.65;1.10;;;21.40;73.60;;;;;;10451842;28;20044;-81
2022/01/05 19:16:08;;;;;;;3.55;1.33;;;21.40;73.60;;;;;;10451318;28;20037;-86
2022/01/05 19:21:09;;;;;;;3.75;1.20;;;21.40;73.70;;;;;;10452957;28;20418;-83
2022/01/05 19:26:11;;;;;;;2.80;1.20;;;21.40;73.70;;;;;;10441914;28;20152;-81
2022/01/05 19:31:12;;;;;;;2.92;1.13;;;21.40;73.60;;;;;;10420484;28;20060;-85
2022/01/05 19:36:14;;;;;;;3.35;1.42;;;21.40;73.70;;;;;;10426497;28;20049;-81
2022/01/05 19:41:15;;;;;;;4.05;1.30;;;21.40;73.60;;;;;;10445849;28;20131;-80
2022/01/05 19:46:17;;;;;;;3.35;1.15;;;21.40;73.50;;;;;;10442482;28;20065;-80
2022/01/05 19:51:29;;;;;;;3.10;1.27;;;21.40;73.60;;;;;;10411069;28;20037;-80
2022/01/05 19:56:40;;;;;;;3.17;1.20;;;21.40;73.50;;;;;;10426149;28;20045;-82
2022/01/05 20:01:42;;;;;;;4.40;1.33;;;21.40;73.50;;;;;;10428379;28;20874;-84
2022/01/05 20:06:43;;;;;;;3.00;0.98;;;21.40;73.50;;;;;;10438649;28;20524;-82
2022/01/05 20:11:45;;;;;;;2.85;1.15;;;21.40;73.40;;;;;;10417085;28;20438;-82
2022/01/05 20:16:46;;;;;;;3.83;1.42;;;21.40;73.50;;;;;;10442761;28;20053;-80
2022/01/05 20:21:48;;;;;;;4.07;1.40;;;21.40;73.50;;;;;;10445265;28;20045;-85
2022/01/05 20:26:49;;;;;;;2.88;1.15;;;21.30;73.40;;;;;;10439048;28;20048;-78
2022/01/05 20:31:51;;;;;;;2.92;1.10;;;21.40;73.50;;;;;;10418885;28;20046;-80
2022/01/05 20:36:52;;;;;;;3.40;1.25;;;21.30;73.40;;;;;;10412514;28;20576;-82
2022/01/05 20:41:54;;;;;;;3.83;1.30;;;21.30;73.40;;;;;;10426951;28;20068;-83
2022/01/05 20:46:55;;;;;;;3.83;1.23;;;21.30;73.50;;;;;;10423389;28;20064;-82
2022/01/05 20:51:57;;;;;;;4.72;1.58;;;21.30;73.50;;;;;;10421522;28;20509;-78
2022/01/05 20:56:58;;;;;;;4.43;1.40;;;21.30;73.60;;;;;;10449718;28;20052;-83
2022/01/05 21:02:00;;;;;;;5.55;1.60;;;21.30;73.80;;;;;;10449221;28;20056;-81
2022/01/05 21:07:01;;;;;;;4.68;1.30;;;21.30;73.80;;;;;;10447883;28;20311;-82
2022/01/05 21:12:03;;;;;;;3.65;1.35;;;21.30;73.60;;;;;;10445728;28;20048;-83
2022/01/05 21:17:05;;;;;;;3.33;1.10;;;21.30;73.40;;;;;;10447892;28;20065;-79
2022/01/05 21:22:07;;;;;;;3.88;1.58;;;21.20;73.90;;;;;;10448131;28;20052;-78
2022/01/05 21:27:08;;;;;;;3.97;1.40;;;21.30;73.40;;;;;;10429016;28;20049;-79
2022/01/05 21:32:10;;;;;;;3.53;1.23;;;21.30;73.40;;;;;;10432091;28;20813;-80
2022/01/05 21:37:11;;;;;;;3.15;1.10;;;21.30;73.30;;;;;;10447814;28;20512;-81
2022/01/05 21:42:13;;;;;;;2.50;1.10;;;21.30;73.40;;;;;;10426890;28;20056;-82
2022/01/05 21:47:16;;;;;;;3.47;1.48;;;21.30;73.40;;;;;;10436473;28;20053;-80
2022/01/05 21:52:18;;;;;;;3.25;1.17;;;21.30;73.40;;;;;;10446576;28;20052;-81
2022/01/05 21:57:19;;;;;;;4.03;1.10;;;21.30;73.40;;;;;;10447989;28;20059;-81
2022/01/05 22:02:21;;;;;;;3.72;1.20;;;21.30;73.40;;;;;;10445971;28;20052;-78
2022/01/05 22:07:22;;;;;;;3.90;1.25;;;21.30;73.40;;;;;;10447296;28;20057;-78
2022/01/05 22:12:24;;;;;;;3.72;1.05;;;21.30;73.40;;;;;;10446629;28;20049;-82
2022/01/05 22:17:25;;;;;;;2.67;1.00;;;21.30;73.40;;;;;;10433625;28;20068;-80
2022/01/05 22:22:27;;;;;;;3.40;1.20;;;21.30;73.50;;;;;;10445994;28;20053;-81
2022/01/05 22:27:29;;;;;;;3.92;1.50;;;21.10;73.80;;;;;;10439516;28;20049;-81
2022/01/05 22:32:30;;;;;;;4.22;1.27;;;20.90;74.10;;;;;;10457113;28;20110;-80
2022/01/05 22:37:32;;;;;;;3.58;1.30;;;20.70;74.50;;;;;;10458257;28;20053;-80
2022/01/05 22:42:34;;;;;;;3.80;1.25;;;20.50;74.80;;;;;;10443051;28;20102;-81
2022/01/05 22:47:35;;;;;;;3.22;1.20;;;20.30;75.20;;;;;;10453178;28;20327;-81
2022/01/05 22:52:37;;;;;;;4.05;1.15;;;20.10;75.50;;;;;;10441960;28;20041;-81
2022/01/05 22:57:38;;;;;;;4.28;1.20;;;19.90;75.70;;;;;;10450831;28;20048;-81
2022/01/05 23:02:40;;;;;;;4.28;1.40;;;19.70;75.90;;;;;;10460907;28;20609;-80
2022/01/05 23:07:41;;;;;;;2.83;1.30;;;19.60;76.10;;;;;;10433549;28;20450;-81
2022/01/05 23:12:43;;;;;;;2.78;1.23;;;19.40;76.30;;;;;;10455648;28;20094;-80
2022/01/05 23:17:44;;;;;;;3.40;1.50;;;19.30;76.50;;;;;;10460340;28;20051;-81
2022/01/05 23:22:46;;;;;;;3.40;1.20;;;19.20;76.70;;;;;;10460690;28;20057;-81
2022/01/05 23:27:47;;;;;;;3.05;1.20;;;19.10;76.90;;;;;;10459757;28;20508;-80
2022/01/05 23:32:52;;;;;;;3.28;1.42;;;19.00;77.10;;;;;;10459825;28;20436;-81
2022/01/05 23:37:53;;;;;;;3.40;1.27;;;18.90;77.30;;;;;;10444925;28;20110;-80
2022/01/05 23:42:55;;;;;;;3.42;1.30;;;18.80;77.40;;;;;;10458843;28;20068;-81
2022/01/05 23:47:59;;;;;;;3.92;1.20;;;18.70;77.50;;;;;;10442357;28;20049;-81
2022/01/05 23:53:01;;;;;;;3.58;1.35;;;18.60;77.70;;;;;;10454968;28;20056;-81
2022/01/05 23:58:02;;;;;;;3.45;1.30;;;18.50;77.80;;;;;;10430574;28;20045;-80
